sensor_id;sensor_type;location;lat;lon;timestamp;P1;durP1;ratioP1;P2;durP2;ratioP2
43311;SDS011;30041;48.300;16.352;2023-07-16T00:01:52;2.40;;;1.30;;
43311;SDS011;30041;48.300;16.352;2023-07-16T00:04:18;1.83;;;1.30;;
43311;SDS011;30041;48.300;16.352;2023-07-16T00:06:43;3.42;;;1.35;;
43311;SDS011;30041;48.300;16.352;2023-07-16T00:09:08;2.13;;;1.15;;
43311;SDS011;30041;48.300;16.352;2023-07-16T00:11:34;3.58;;;1.40;;
43311;SDS011;30041;48.300;16.352;2023-07-16T00:13:59;2.65;;;1.27;;
43311;SDS011;30041;48.300;16.352;2023-07-16T00:16:25;1.73;;;1.15;;
43311;SDS011;30041;48.300;16.352;2023-07-16T00:18:50;2.83;;;1.20;;
43311;SDS011;30041;48.300;16.352;2023-07-16T00:21:16;2.58;;;1.13;;
43311;SDS011;30041;48.300;16.352;2023-07-16T00:23:41;1.75;;;1.00;;
43311;SDS011;30041;48.300;16.352;2023-07-16T00:26:07;1.58;;;1.15;;
43311;SDS011;30041;48.300;16.352;2023-07-16T00:28:33;2.25;;;1.15;;
43311;SDS011;30041;48.300;16.352;2023-07-16T00:30:58;1.48;;;0.98;;
43311;SDS011;30041;48.300;16.352;2023-07-16T00:33:24;1.48;;;1.00;;
43311;SDS011;30041;48.300;16.352;2023-07-16T00:35:50;2.00;;;1.30;;
43311;SDS011;30041;48.300;16.352;2023-07-16T00:38:18;1.55;;;1.00;;
43311;SDS011;30041;48.300;16.352;2023-07-16T00:40:45;1.67;;;1.05;;
43311;SDS011;30041;48.300;16.352;2023-07-16T00:43:10;2.00;;;1.10;;
43311;SDS011;30041;48.300;16.352;2023-07-16T00:45:39;2.50;;;1.10;;
43311;SDS011;30041;48.300;16.352;2023-07-16T00:48:06;2.10;;;0.98;;
43311;SDS011;30041;48.300;16.352;2023-07-16T00:50:33;1.90;;;1.02;;
43311;SDS011;30041;48.300;16.352;2023-07-16T00:53:01;1.73;;;1.08;;
43311;SDS011;30041;48.300;16.352;2023-07-16T00:55:28;2.25;;;0.93;;
43311;SDS011;30041;48.300;16.352;2023-07-16T00:57:55;1.38;;;1.00;;
43311;SDS011;30041;48.300;16.352;2023-07-16T01:00:25;2.00;;;1.17;;
43311;SDS011;30041;48.300;16.352;2023-07-16T01:02:51;2.25;;;1.13;;
43311;SDS011;30041;48.300;16.352;2023-07-16T01:05:16;1.30;;;1.10;;
43311;SDS011;30041;48.300;16.352;2023-07-16T01:07:42;1.50;;;1.00;;
43311;SDS011;30041;48.300;16.352;2023-07-16T01:10:17;1.83;;;1.00;;
43311;SDS011;30041;48.300;16.352;2023-07-16T01:12:43;3.58;;;1.15;;
43311;SDS011;30041;48.300;16.352;2023-07-16T01:15:09;1.40;;;0.98;;
43311;SDS011;30041;48.300;16.352;2023-07-16T01:17:35;2.83;;;1.00;;
43311;SDS011;30041;48.300;16.352;2023-07-16T01:20:00;1.98;;;1.00;;
43311;SDS011;30041;48.300;16.352;2023-07-16T01:22:50;1.30;;;0.95;;
43311;SDS011;30041;48.300;16.352;2023-07-16T01:25:40;1.23;;;0.80;;
43311;SDS011;30041;48.300;16.352;2023-07-16T01:31:39;1.58;;;0.95;;
43311;SDS011;30041;48.300;16.352;2023-07-16T01:34:06;1.23;;;0.90;;
43311;SDS011;30041;48.300;16.352;2023-07-16T01:36:33;1.80;;;1.05;;
43311;SDS011;30041;48.300;16.352;2023-07-16T01:39:03;1.30;;;0.98;;
43311;SDS011;30041;48.300;16.352;2023-07-16T01:41:30;0.75;;;0.73;;
43311;SDS011;30041;48.300;16.352;2023-07-16T01:43:55;1.30;;;0.98;;
43311;SDS011;30041;48.300;16.352;2023-07-16T01:46:21;1.58;;;0.98;;
43311;SDS011;30041;48.300;16.352;2023-07-16T01:48:46;1.27;;;0.80;;
43311;SDS011;30041;48.300;16.352;2023-07-16T01:51:12;2.00;;;0.90;;
43311;SDS011;30041;48.300;16.352;2023-07-16T01:53:38;1.88;;;1.20;;
43311;SDS011;30041;48.300;16.352;2023-07-16T01:56:03;0.70;;;0.70;;
43311;SDS011;30041;48.300;16.352;2023-07-16T01:58:29;1.30;;;1.00;;
43311;SDS011;30041;48.300;16.352;2023-07-16T02:00:54;1.42;;;0.80;;
43311;SDS011;30041;48.300;16.352;2023-07-16T02:03:20;2.13;;;1.20;;
43311;SDS011;30041;48.300;16.352;2023-07-16T02:05:45;1.45;;;1.00;;
43311;SDS011;30041;48.300;16.352;2023-07-16T02:08:11;1.38;;;0.98;;
43311;SDS011;30041;48.300;16.352;2023-07-16T02:10:36;1.27;;;0.77;;
43311;SDS011;30041;48.300;16.352;2023-07-16T02:13:02;1.20;;;0.80;;
43311;SDS011;30041;48.300;16.352;2023-07-16T02:15:27;1.00;;;0.80;;
43311;SDS011;30041;48.300;16.352;2023-07-16T02:17:53;0.90;;;0.80;;
43311;SDS011;30041;48.300;16.352;2023-07-16T02:20:18;0.57;;;0.57;;
43311;SDS011;30041;48.300;16.352;2023-07-16T02:22:44;0.60;;;0.60;;
43311;SDS011;30041;48.300;16.352;2023-07-16T02:25:09;1.52;;;0.90;;
43311;SDS011;30041;48.300;16.352;2023-07-16T02:27:35;1.25;;;0.80;;
43311;SDS011;30041;48.300;16.352;2023-07-16T02:30:00;1.35;;;0.93;;
43311;SDS011;30041;48.300;16.352;2023-07-16T02:32:26;0.85;;;0.73;;
43311;SDS011;30041;48.300;16.352;2023-07-16T02:34:53;1.20;;;0.90;;
43311;SDS011;30041;48.300;16.352;2023-07-16T02:37:21;1.70;;;0.93;;
43311;SDS011;30041;48.300;16.352;2023-07-16T02:39:47;0.80;;;0.75;;
43311;SDS011;30041;48.300;16.352;2023-07-16T02:42:13;1.20;;;0.90;;
43311;SDS011;30041;48.300;16.352;2023-07-16T02:44:38;1.33;;;1.00;;
43311;SDS011;30041;48.300;16.352;2023-07-16T02:47:04;1.33;;;1.00;;
43311;SDS011;30041;48.300;16.352;2023-07-16T02:49:29;0.95;;;0.80;;
43311;SDS011;30041;48.300;16.352;2023-07-16T02:51:55;1.38;;;0.98;;
43311;SDS011;30041;48.300;16.352;2023-07-16T02:54:23;1.17;;;0.80;;
43311;SDS011;30041;48.300;16.352;2023-07-16T02:56:49;1.63;;;1.00;;
43311;SDS011;30041;48.300;16.352;2023-07-16T02:59:14;1.27;;;0.80;;
43311;SDS011;30041;48.300;16.352;2023-07-16T03:01:40;1.70;;;0.90;;
43311;SDS011;30041;48.300;16.352;2023-07-16T03:04:05;1.67;;;0.98;;
43311;SDS011;30041;48.300;16.352;2023-07-16T03:06:31;1.38;;;1.08;;
43311;SDS011;30041;48.300;16.352;2023-07-16T03:08:56;1.17;;;0.85;;
43311;SDS011;30041;48.300;16.352;2023-07-16T03:11:22;1.67;;;1.00;;
43311;SDS011;30041;48.300;16.352;2023-07-16T03:13:48;1.35;;;0.90;;
43311;SDS011;30041;48.300;16.352;2023-07-16T03:16:14;1.30;;;0.90;;
43311;SDS011;30041;48.300;16.352;2023-07-16T03:18:39;1.00;;;0.90;;
43311;SDS011;30041;48.300;16.352;2023-07-16T03:21:05;1.45;;;0.90;;
43311;SDS011;30041;48.300;16.352;2023-07-16T03:23:30;1.48;;;1.00;;
43311;SDS011;30041;48.300;16.352;2023-07-16T03:25:56;1.23;;;0.90;;
43311;SDS011;30041;48.300;16.352;2023-07-16T03:28:21;0.93;;;0.90;;
43311;SDS011;30041;48.300;16.352;2023-07-16T03:30:47;1.55;;;1.10;;
43311;SDS011;30041;48.300;16.352;2023-07-16T03:33:14;1.33;;;1.02;;
43311;SDS011;30041;48.300;16.352;2023-07-16T03:35:42;1.42;;;0.90;;
43311;SDS011;30041;48.300;16.352;2023-07-16T03:38:08;2.33;;;0.90;;
43311;SDS011;30041;48.300;16.352;2023-07-16T03:40:34;1.80;;;1.20;;
43311;SDS011;30041;48.300;16.352;2023-07-16T03:42:59;1.42;;;1.08;;
43311;SDS011;30041;48.300;16.352;2023-07-16T03:45:25;1.23;;;0.82;;
43311;SDS011;30041;48.300;16.352;2023-07-16T03:47:50;1.55;;;1.00;;
43311;SDS011;30041;48.300;16.352;2023-07-16T03:50:16;1.40;;;1.00;;
43311;SDS011;30041;48.300;16.352;2023-07-16T03:52:43;0.90;;;0.80;;
43311;SDS011;30041;48.300;16.352;2023-07-16T03:55:09;1.50;;;1.10;;
43311;SDS011;30041;48.300;16.352;2023-07-16T03:57:35;1.42;;;1.00;;
43311;SDS011;30041;48.300;16.352;2023-07-16T04:00:02;1.90;;;1.00;;
43311;SDS011;30041;48.300;16.352;2023-07-16T04:02:28;1.13;;;1.02;;
43311;SDS011;30041;48.300;16.352;2023-07-16T04:04:54;1.15;;;1.05;;
43311;SDS011;30041;48.300;16.352;2023-07-16T04:07:19;1.80;;;1.20;;
43311;SDS011;30041;48.300;16.352;2023-07-16T04:09:44;1.00;;;0.90;;
43311;SDS011;30041;48.300;16.352;2023-07-16T04:12:10;1.60;;;1.15;;
43311;SDS011;30041;48.300;16.352;2023-07-16T04:14:36;1.85;;;1.27;;
43311;SDS011;30041;48.300;16.352;2023-07-16T04:17:01;1.27;;;1.05;;
43311;SDS011;30041;48.300;16.352;2023-07-16T04:19:27;2.47;;;1.40;;
43311;SDS011;30041;48.300;16.352;2023-07-16T04:21:53;1.10;;;1.00;;
43311;SDS011;30041;48.300;16.352;2023-07-16T04:24:18;1.67;;;1.23;;
43311;SDS011;30041;48.300;16.352;2023-07-16T04:26:44;1.60;;;1.20;;
43311;SDS011;30041;48.300;16.352;2023-07-16T04:29:09;1.50;;;1.20;;
43311;SDS011;30041;48.300;16.352;2023-07-16T04:31:35;1.52;;;1.00;;
43311;SDS011;30041;48.300;16.352;2023-07-16T04:34:00;1.77;;;1.30;;
43311;SDS011;30041;48.300;16.352;2023-07-16T04:36:26;1.60;;;1.30;;
43311;SDS011;30041;48.300;16.352;2023-07-16T04:38:51;1.63;;;1.05;;
43311;SDS011;30041;48.300;16.352;2023-07-16T04:41:17;1.55;;;1.27;;
43311;SDS011;30041;48.300;16.352;2023-07-16T04:43:42;1.38;;;1.17;;
43311;SDS011;30041;48.300;16.352;2023-07-16T04:46:08;1.50;;;1.13;;
43311;SDS011;30041;48.300;16.352;2023-07-16T04:48:33;2.38;;;1.25;;
43311;SDS011;30041;48.300;16.352;2023-07-16T04:50:59;2.30;;;1.42;;
43311;SDS011;30041;48.300;16.352;2023-07-16T04:53:24;1.60;;;1.17;;
43311;SDS011;30041;48.300;16.352;2023-07-16T04:55:50;1.40;;;1.25;;
43311;SDS011;30041;48.300;16.352;2023-07-16T04:58:16;1.83;;;1.50;;
43311;SDS011;30041;48.300;16.352;2023-07-16T05:00:41;1.52;;;1.30;;
43311;SDS011;30041;48.300;16.352;2023-07-16T05:03:07;1.70;;;1.33;;
43311;SDS011;30041;48.300;16.352;2023-07-16T05:05:32;1.60;;;1.30;;
43311;SDS011;30041;48.300;16.352;2023-07-16T05:07:58;3.83;;;1.40;;
43311;SDS011;30041;48.300;16.352;2023-07-16T05:10:23;2.10;;;1.52;;
43311;SDS011;30041;48.300;16.352;2023-07-16T05:12:49;1.77;;;1.40;;
43311;SDS011;30041;48.300;16.352;2023-07-16T05:15:15;1.88;;;1.60;;
43311;SDS011;30041;48.300;16.352;2023-07-16T05:17:41;1.23;;;1.13;;
43311;SDS011;30041;48.300;16.352;2023-07-16T05:20:06;1.92;;;1.60;;
43311;SDS011;30041;48.300;16.352;2023-07-16T05:22:35;2.08;;;1.55;;
43311;SDS011;30041;48.300;16.352;2023-07-16T05:25:00;3.90;;;3.50;;
43311;SDS011;30041;48.300;16.352;2023-07-16T05:27:26;6.95;;;4.35;;
43311;SDS011;30041;48.300;16.352;2023-07-16T05:29:53;8.23;;;4.50;;
43311;SDS011;30041;48.300;16.352;2023-07-16T05:32:18;6.20;;;4.38;;
43311;SDS011;30041;48.300;16.352;2023-07-16T05:34:44;7.13;;;4.50;;
43311;SDS011;30041;48.300;16.352;2023-07-16T05:37:09;7.15;;;4.13;;
43311;SDS011;30041;48.300;16.352;2023-07-16T05:39:35;11.30;;;4.50;;
43311;SDS011;30041;48.300;16.352;2023-07-16T05:42:00;9.73;;;5.07;;
43311;SDS011;30041;48.300;16.352;2023-07-16T05:44:26;6.35;;;4.60;;
43311;SDS011;30041;48.300;16.352;2023-07-16T05:46:51;8.32;;;4.85;;
43311;SDS011;30041;48.300;16.352;2023-07-16T05:49:17;11.68;;;4.93;;
43311;SDS011;30041;48.300;16.352;2023-07-16T05:51:42;6.88;;;4.90;;
43311;SDS011;30041;48.300;16.352;2023-07-16T05:54:08;8.07;;;4.85;;
43311;SDS011;30041;48.300;16.352;2023-07-16T05:56:33;5.90;;;4.35;;
43311;SDS011;30041;48.300;16.352;2023-07-16T05:58:59;8.45;;;4.72;;
43311;SDS011;30041;48.300;16.352;2023-07-16T06:01:24;6.63;;;4.20;;
43311;SDS011;30041;48.300;16.352;2023-07-16T06:03:50;7.60;;;5.00;;
43311;SDS011;30041;48.300;16.352;2023-07-16T06:06:15;5.85;;;4.90;;
43311;SDS011;30041;48.300;16.352;2023-07-16T06:08:40;6.03;;;4.82;;
43311;SDS011;30041;48.300;16.352;2023-07-16T06:11:06;9.55;;;4.75;;
43311;SDS011;30041;48.300;16.352;2023-07-16T06:13:31;8.82;;;5.05;;
43311;SDS011;30041;48.300;16.352;2023-07-16T06:15:57;8.02;;;5.13;;
43311;SDS011;30041;48.300;16.352;2023-07-16T06:18:22;7.88;;;4.80;;
43311;SDS011;30041;48.300;16.352;2023-07-16T06:20:48;9.73;;;5.30;;
43311;SDS011;30041;48.300;16.352;2023-07-16T06:23:14;6.35;;;4.90;;
43311;SDS011;30041;48.300;16.352;2023-07-16T06:25:39;7.13;;;4.90;;
43311;SDS011;30041;48.300;16.352;2023-07-16T06:28:05;7.45;;;4.78;;
43311;SDS011;30041;48.300;16.352;2023-07-16T06:30:30;9.40;;;5.00;;
43311;SDS011;30041;48.300;16.352;2023-07-16T06:32:56;7.45;;;5.25;;
43311;SDS011;30041;48.300;16.352;2023-07-16T06:35:21;5.85;;;4.80;;
43311;SDS011;30041;48.300;16.352;2023-07-16T06:37:47;8.80;;;4.88;;
43311;SDS011;30041;48.300;16.352;2023-07-16T06:40:12;9.10;;;4.97;;
43311;SDS011;30041;48.300;16.352;2023-07-16T06:42:38;8.23;;;5.10;;
43311;SDS011;30041;48.300;16.352;2023-07-16T06:45:06;8.32;;;5.38;;
43311;SDS011;30041;48.300;16.352;2023-07-16T06:47:32;7.68;;;4.85;;
43311;SDS011;30041;48.300;16.352;2023-07-16T06:49:57;8.27;;;4.95;;
43311;SDS011;30041;48.300;16.352;2023-07-16T06:52:23;7.38;;;4.95;;
43311;SDS011;30041;48.300;16.352;2023-07-16T06:54:49;7.13;;;5.10;;
43311;SDS011;30041;48.300;16.352;2023-07-16T06:57:14;7.90;;;5.40;;
43311;SDS011;30041;48.300;16.352;2023-07-16T06:59:40;8.30;;;5.07;;
43311;SDS011;30041;48.300;16.352;2023-07-16T07:02:05;7.97;;;5.45;;
43311;SDS011;30041;48.300;16.352;2023-07-16T07:04:31;8.63;;;5.10;;
43311;SDS011;30041;48.300;16.352;2023-07-16T07:06:57;11.93;;;5.60;;
43311;SDS011;30041;48.300;16.352;2023-07-16T07:09:22;10.65;;;4.97;;
43311;SDS011;30041;48.300;16.352;2023-07-16T07:11:48;5.70;;;4.57;;
43311;SDS011;30041;48.300;16.352;2023-07-16T07:14:13;6.32;;;4.70;;
43311;SDS011;30041;48.300;16.352;2023-07-16T07:16:41;7.35;;;5.13;;
43311;SDS011;30041;48.300;16.352;2023-07-16T07:19:07;9.00;;;5.10;;
43311;SDS011;30041;48.300;16.352;2023-07-16T07:21:33;8.90;;;4.68;;
43311;SDS011;30041;48.300;16.352;2023-07-16T07:24:01;11.60;;;4.88;;
43311;SDS011;30041;48.300;16.352;2023-07-16T07:26:26;11.95;;;5.13;;
43311;SDS011;30041;48.300;16.352;2023-07-16T07:28:55;8.35;;;4.75;;
43311;SDS011;30041;48.300;16.352;2023-07-16T07:31:21;8.70;;;4.72;;
43311;SDS011;30041;48.300;16.352;2023-07-16T07:33:46;8.35;;;4.80;;
43311;SDS011;30041;48.300;16.352;2023-07-16T07:36:12;6.47;;;4.85;;
43311;SDS011;30041;48.300;16.352;2023-07-16T07:38:37;6.68;;;4.78;;
43311;SDS011;30041;48.300;16.352;2023-07-16T07:41:04;12.18;;;5.00;;
43311;SDS011;30041;48.300;16.352;2023-07-16T07:43:30;5.45;;;4.18;;
43311;SDS011;30041;48.300;16.352;2023-07-16T07:45:56;9.23;;;4.38;;
43311;SDS011;30041;48.300;16.352;2023-07-16T07:48:21;7.68;;;4.63;;
43311;SDS011;30041;48.300;16.352;2023-07-16T07:50:47;7.35;;;4.25;;
43311;SDS011;30041;48.300;16.352;2023-07-16T07:53:12;8.05;;;4.63;;
43311;SDS011;30041;48.300;16.352;2023-07-16T07:55:38;7.63;;;4.10;;
43311;SDS011;30041;48.300;16.352;2023-07-16T07:58:03;4.93;;;3.88;;
43311;SDS011;30041;48.300;16.352;2023-07-16T08:00:29;7.22;;;4.47;;
43311;SDS011;30041;48.300;16.352;2023-07-16T08:02:54;8.13;;;4.05;;
43311;SDS011;30041;48.300;16.352;2023-07-16T08:05:20;8.07;;;4.38;;
43311;SDS011;30041;48.300;16.352;2023-07-16T08:07:45;6.22;;;4.15;;
43311;SDS011;30041;48.300;16.352;2023-07-16T08:10:11;6.00;;;3.92;;
43311;SDS011;30041;48.300;16.352;2023-07-16T08:12:37;7.47;;;3.83;;
43311;SDS011;30041;48.300;16.352;2023-07-16T08:15:02;6.90;;;3.35;;
43311;SDS011;30041;48.300;16.352;2023-07-16T08:17:28;6.78;;;3.38;;
43311;SDS011;30041;48.300;16.352;2023-07-16T08:19:53;5.43;;;3.58;;
43311;SDS011;30041;48.300;16.352;2023-07-16T08:22:19;4.32;;;3.08;;
43311;SDS011;30041;48.300;16.352;2023-07-16T08:24:44;4.15;;;3.30;;
43311;SDS011;30041;48.300;16.352;2023-07-16T08:27:10;5.57;;;3.33;;
43311;SDS011;30041;48.300;16.352;2023-07-16T08:29:36;4.80;;;3.17;;
43311;SDS011;30041;48.300;16.352;2023-07-16T08:32:02;4.30;;;3.00;;
43311;SDS011;30041;48.300;16.352;2023-07-16T08:34:27;5.60;;;2.90;;
43311;SDS011;30041;48.300;16.352;2023-07-16T08:36:53;5.47;;;3.20;;
43311;SDS011;30041;48.300;16.352;2023-07-16T08:39:18;7.72;;;3.20;;
43311;SDS011;30041;48.300;16.352;2023-07-16T08:41:44;16.17;;;3.40;;
43311;SDS011;30041;48.300;16.352;2023-07-16T08:44:10;13.82;;;3.20;;
43311;SDS011;30041;48.300;16.352;2023-07-16T08:46:39;9.00;;;3.13;;
43311;SDS011;30041;48.300;16.352;2023-07-16T08:49:06;8.23;;;3.20;;
43311;SDS011;30041;48.300;16.352;2023-07-16T08:51:32;7.88;;;2.67;;
43311;SDS011;30041;48.300;16.352;2023-07-16T08:54:00;7.00;;;2.60;;
43311;SDS011;30041;48.300;16.352;2023-07-16T08:56:25;6.40;;;2.40;;
43311;SDS011;30041;48.300;16.352;2023-07-16T08:58:52;4.15;;;2.25;;
43311;SDS011;30041;48.300;16.352;2023-07-16T09:01:20;9.75;;;2.40;;
43311;SDS011;30041;48.300;16.352;2023-07-16T09:03:46;5.10;;;2.28;;
43311;SDS011;30041;48.300;16.352;2023-07-16T09:06:11;3.30;;;2.13;;
43311;SDS011;30041;48.300;16.352;2023-07-16T09:08:37;7.03;;;2.35;;
43311;SDS011;30041;48.300;16.352;2023-07-16T09:11:02;7.55;;;2.38;;
43311;SDS011;30041;48.300;16.352;2023-07-16T09:13:29;3.72;;;2.20;;
43311;SDS011;30041;48.300;16.352;2023-07-16T09:15:57;5.20;;;1.90;;
43311;SDS011;30041;48.300;16.352;2023-07-16T09:18:24;4.28;;;2.30;;
43311;SDS011;30041;48.300;16.352;2023-07-16T09:20:58;4.05;;;1.70;;
43311;SDS011;30041;48.300;16.352;2023-07-16T09:23:25;5.85;;;2.20;;
43311;SDS011;30041;48.300;16.352;2023-07-16T09:25:51;7.18;;;2.40;;
43311;SDS011;30041;48.300;16.352;2023-07-16T09:28:18;6.75;;;2.40;;
43311;SDS011;30041;48.300;16.352;2023-07-16T09:30:44;5.68;;;2.40;;
43311;SDS011;30041;48.300;16.352;2023-07-16T09:33:15;4.30;;;2.30;;
43311;SDS011;30041;48.300;16.352;2023-07-16T09:35:43;3.15;;;2.08;;
43311;SDS011;30041;48.300;16.352;2023-07-16T09:38:08;3.80;;;1.90;;
43311;SDS011;30041;48.300;16.352;2023-07-16T09:40:39;3.53;;;2.22;;
43311;SDS011;30041;48.300;16.352;2023-07-16T09:43:05;17.58;;;3.38;;
43311;SDS011;30041;48.300;16.352;2023-07-16T09:45:31;6.22;;;2.30;;
43311;SDS011;30041;48.300;16.352;2023-07-16T09:47:57;8.75;;;2.33;;
43311;SDS011;30041;48.300;16.352;2023-07-16T09:50:27;7.13;;;2.33;;
43311;SDS011;30041;48.300;16.352;2023-07-16T09:52:54;7.10;;;2.58;;
43311;SDS011;30041;48.300;16.352;2023-07-16T09:55:21;7.15;;;2.50;;
43311;SDS011;30041;48.300;16.352;2023-07-16T09:57:47;6.35;;;2.10;;
43311;SDS011;30041;48.300;16.352;2023-07-16T10:00:15;3.42;;;2.03;;
43311;SDS011;30041;48.300;16.352;2023-07-16T10:02:42;7.47;;;2.67;;
43311;SDS011;30041;48.300;16.352;2023-07-16T10:05:13;6.15;;;2.10;;
43311;SDS011;30041;48.300;16.352;2023-07-16T10:07:43;4.80;;;2.20;;
43311;SDS011;30041;48.300;16.352;2023-07-16T10:10:14;3.45;;;2.22;;
43311;SDS011;30041;48.300;16.352;2023-07-16T10:12:40;3.70;;;2.40;;
43311;SDS011;30041;48.300;16.352;2023-07-16T10:15:24;5.55;;;2.20;;
43311;SDS011;30041;48.300;16.352;2023-07-16T10:17:51;4.60;;;2.10;;
43311;SDS011;30041;48.300;16.352;2023-07-16T10:20:16;4.45;;;2.50;;
43311;SDS011;30041;48.300;16.352;2023-07-16T10:22:43;3.95;;;2.35;;
43311;SDS011;30041;48.300;16.352;2023-07-16T10:27:45;5.57;;;2.47;;
43311;SDS011;30041;48.300;16.352;2023-07-16T10:30:12;4.30;;;2.38;;
43311;SDS011;30041;48.300;16.352;2023-07-16T10:32:38;5.25;;;2.45;;
43311;SDS011;30041;48.300;16.352;2023-07-16T10:35:04;3.00;;;2.33;;
43311;SDS011;30041;48.300;16.352;2023-07-16T10:37:31;3.88;;;2.30;;
43311;SDS011;30041;48.300;16.352;2023-07-16T10:39:57;5.72;;;2.42;;
43311;SDS011;30041;48.300;16.352;2023-07-16T10:42:24;3.22;;;2.20;;
43311;SDS011;30041;48.300;16.352;2023-07-16T10:44:52;6.85;;;2.22;;
43311;SDS011;30041;48.300;16.352;2023-07-16T10:47:20;3.47;;;2.28;;
43311;SDS011;30041;48.300;16.352;2023-07-16T10:49:47;5.03;;;2.28;;
43311;SDS011;30041;48.300;16.352;2023-07-16T10:52:15;4.75;;;2.50;;
43311;SDS011;30041;48.300;16.352;2023-07-16T10:54:41;4.95;;;2.30;;
43311;SDS011;30041;48.300;16.352;2023-07-16T10:57:06;4.30;;;1.95;;
43311;SDS011;30041;48.300;16.352;2023-07-16T10:59:32;5.82;;;2.55;;
43311;SDS011;30041;48.300;16.352;2023-07-16T11:01:58;4.32;;;2.10;;
43311;SDS011;30041;48.300;16.352;2023-07-16T11:04:23;3.55;;;2.08;;
43311;SDS011;30041;48.300;16.352;2023-07-16T11:06:52;3.35;;;2.00;;
43311;SDS011;30041;48.300;16.352;2023-07-16T11:09:17;3.75;;;1.85;;
43311;SDS011;30041;48.300;16.352;2023-07-16T11:11:43;2.83;;;1.98;;
43311;SDS011;30041;48.300;16.352;2023-07-16T11:14:08;3.25;;;1.90;;
43311;SDS011;30041;48.300;16.352;2023-07-16T11:16:35;2.63;;;1.80;;
43311;SDS011;30041;48.300;16.352;2023-07-16T11:19:03;4.43;;;2.35;;
43311;SDS011;30041;48.300;16.352;2023-07-16T11:21:30;6.22;;;2.10;;
43311;SDS011;30041;48.300;16.352;2023-07-16T11:24:07;2.40;;;2.10;;
43311;SDS011;30041;48.300;16.352;2023-07-16T11:26:33;2.80;;;2.17;;
43311;SDS011;30041;48.300;16.352;2023-07-16T11:28:58;4.10;;;2.22;;
43311;SDS011;30041;48.300;16.352;2023-07-16T11:31:24;4.50;;;2.20;;
43311;SDS011;30041;48.300;16.352;2023-07-16T11:33:50;2.90;;;1.77;;
43311;SDS011;30041;48.300;16.352;2023-07-16T11:36:16;3.83;;;1.90;;
43311;SDS011;30041;48.300;16.352;2023-07-16T11:38:41;4.22;;;2.10;;
43311;SDS011;30041;48.300;16.352;2023-07-16T11:41:07;3.20;;;2.00;;
43311;SDS011;30041;48.300;16.352;2023-07-16T11:43:36;3.53;;;1.90;;
43311;SDS011;30041;48.300;16.352;2023-07-16T11:46:13;3.47;;;2.00;;
43311;SDS011;30041;48.300;16.352;2023-07-16T11:48:41;4.57;;;2.17;;
43311;SDS011;30041;48.300;16.352;2023-07-16T11:51:06;4.78;;;1.90;;
43311;SDS011;30041;48.300;16.352;2023-07-16T11:53:34;3.10;;;1.95;;
43311;SDS011;30041;48.300;16.352;2023-07-16T11:56:00;3.03;;;1.90;;
43311;SDS011;30041;48.300;16.352;2023-07-16T11:58:25;2.65;;;1.85;;
43311;SDS011;30041;48.300;16.352;2023-07-16T12:00:53;4.38;;;2.00;;
43311;SDS011;30041;48.300;16.352;2023-07-16T12:03:19;5.10;;;2.00;;
43311;SDS011;30041;48.300;16.352;2023-07-16T12:05:44;4.40;;;1.98;;
43311;SDS011;30041;48.300;16.352;2023-07-16T12:08:14;3.97;;;2.00;;
43311;SDS011;30041;48.300;16.352;2023-07-16T12:10:40;2.95;;;2.00;;
43311;SDS011;30041;48.300;16.352;2023-07-16T12:13:06;5.20;;;2.03;;
43311;SDS011;30041;48.300;16.352;2023-07-16T12:15:31;4.10;;;2.40;;
43311;SDS011;30041;48.300;16.352;2023-07-16T12:17:57;2.47;;;1.90;;
43311;SDS011;30041;48.300;16.352;2023-07-16T12:20:23;2.88;;;2.08;;
43311;SDS011;30041;48.300;16.352;2023-07-16T12:22:48;5.65;;;1.95;;
43311;SDS011;30041;48.300;16.352;2023-07-16T12:25:16;2.92;;;2.10;;
43311;SDS011;30041;48.300;16.352;2023-07-16T12:27:44;2.63;;;1.80;;
43311;SDS011;30041;48.300;16.352;2023-07-16T12:30:13;4.70;;;2.00;;
43311;SDS011;30041;48.300;16.352;2023-07-16T12:32:38;4.68;;;1.90;;
43311;SDS011;30041;48.300;16.352;2023-07-16T12:35:04;6.40;;;2.42;;
43311;SDS011;30041;48.300;16.352;2023-07-16T12:37:30;3.85;;;2.00;;
43311;SDS011;30041;48.300;16.352;2023-07-16T12:39:55;5.68;;;2.30;;
43311;SDS011;30041;48.300;16.352;2023-07-16T12:42:21;2.35;;;1.85;;
43311;SDS011;30041;48.300;16.352;2023-07-16T12:44:46;3.65;;;1.90;;
43311;SDS011;30041;48.300;16.352;2023-07-16T12:47:12;5.95;;;2.20;;
43311;SDS011;30041;48.300;16.352;2023-07-16T12:49:38;3.72;;;1.98;;
43311;SDS011;30041;48.300;16.352;2023-07-16T12:52:03;3.22;;;1.90;;
43311;SDS011;30041;48.300;16.352;2023-07-16T12:54:29;3.50;;;2.03;;
43311;SDS011;30041;48.300;16.352;2023-07-16T12:56:55;5.90;;;2.25;;
43311;SDS011;30041;48.300;16.352;2023-07-16T12:59:20;3.03;;;1.92;;
43311;SDS011;30041;48.300;16.352;2023-07-16T13:01:46;3.45;;;1.70;;
43311;SDS011;30041;48.300;16.352;2023-07-16T13:04:11;2.90;;;1.90;;
43311;SDS011;30041;48.300;16.352;2023-07-16T13:06:37;3.40;;;1.98;;
43311;SDS011;30041;48.300;16.352;2023-07-16T13:09:02;4.90;;;1.95;;
43311;SDS011;30041;48.300;16.352;2023-07-16T13:11:28;2.90;;;2.05;;
43311;SDS011;30041;48.300;16.352;2023-07-16T13:13:53;3.25;;;1.90;;
43311;SDS011;30041;48.300;16.352;2023-07-16T13:16:19;3.70;;;1.98;;
43311;SDS011;30041;48.300;16.352;2023-07-16T13:18:45;2.88;;;2.00;;
43311;SDS011;30041;48.300;16.352;2023-07-16T13:21:10;5.32;;;1.77;;
43311;SDS011;30041;48.300;16.352;2023-07-16T13:23:36;3.25;;;1.70;;
43311;SDS011;30041;48.300;16.352;2023-07-16T13:26:01;2.90;;;1.85;;
43311;SDS011;30041;48.300;16.352;2023-07-16T13:28:27;2.38;;;1.80;;
43311;SDS011;30041;48.300;16.352;2023-07-16T13:30:53;3.53;;;1.63;;
43311;SDS011;30041;48.300;16.352;2023-07-16T13:33:19;4.38;;;1.80;;
43311;SDS011;30041;48.300;16.352;2023-07-16T13:35:47;4.80;;;2.00;;
43311;SDS011;30041;48.300;16.352;2023-07-16T13:38:12;2.90;;;1.83;;
43311;SDS011;30041;48.300;16.352;2023-07-16T13:40:38;3.20;;;2.03;;
43311;SDS011;30041;48.300;16.352;2023-07-16T13:43:03;3.30;;;1.88;;
43311;SDS011;30041;48.300;16.352;2023-07-16T13:45:29;3.22;;;2.10;;
43311;SDS011;30041;48.300;16.352;2023-07-16T13:47:54;3.17;;;2.33;;
43311;SDS011;30041;48.300;16.352;2023-07-16T13:50:20;2.38;;;1.70;;
43311;SDS011;30041;48.300;16.352;2023-07-16T13:52:45;2.33;;;1.75;;
43311;SDS011;30041;48.300;16.352;2023-07-16T13:55:13;2.67;;;1.63;;
43311;SDS011;30041;48.300;16.352;2023-07-16T13:57:39;2.55;;;1.90;;
43311;SDS011;30041;48.300;16.352;2023-07-16T14:00:05;3.47;;;2.10;;
43311;SDS011;30041;48.300;16.352;2023-07-16T14:02:31;3.92;;;2.05;;
43311;SDS011;30041;48.300;16.352;2023-07-16T14:04:56;2.42;;;2.00;;
43311;SDS011;30041;48.300;16.352;2023-07-16T14:07:22;2.92;;;1.90;;
43311;SDS011;30041;48.300;16.352;2023-07-16T14:09:50;2.95;;;1.80;;
43311;SDS011;30041;48.300;16.352;2023-07-16T14:12:16;2.58;;;1.73;;
43311;SDS011;30041;48.300;16.352;2023-07-16T14:14:41;3.28;;;1.70;;
43311;SDS011;30041;48.300;16.352;2023-07-16T14:17:07;3.60;;;1.80;;
43311;SDS011;30041;48.300;16.352;2023-07-16T14:19:33;2.05;;;1.70;;
43311;SDS011;30041;48.300;16.352;2023-07-16T14:21:58;3.13;;;1.60;;
43311;SDS011;30041;48.300;16.352;2023-07-16T14:24:24;3.38;;;1.77;;
43311;SDS011;30041;48.300;16.352;2023-07-16T14:26:49;3.13;;;2.00;;
43311;SDS011;30041;48.300;16.352;2023-07-16T14:29:15;3.25;;;1.60;;
43311;SDS011;30041;48.300;16.352;2023-07-16T14:31:41;2.42;;;1.70;;
43311;SDS011;30041;48.300;16.352;2023-07-16T14:34:09;4.18;;;1.80;;